Monson, ME

04:29 PM EDT on Oktober 31, 2014 (GMT -0400)
Greeley's Landing | Change Station
CLOSE
Current Station
Personal Weather Stations
Location: Dover-Foxcroft, ME
Elevation: 315 ft
Nearby Weather Stations

Elev 315 ft 45.25 °N, 69.24 °W | Updated 13 minutes ago

Toe getrek
Toe getrek
46.4 °F
Feels Like 46 °F
N
1.6
Wind Veranderlik Wind from NNO

Vandag
High -- | Low -- °F
--% Chance of Precip.
Yesterday
High -- | Low -- °F
Precip. -- in
7:15 AM 5:26 PM
Eerste Kwartier, 58% visible
Druk 30.07 in
Sigbaarheid 10.0 myle
Wolke Toe getrek 5000 ft
Wind afkoel 46 °F
Dou-punt 31 °F
Humiditeit 55%
Rainfall 0.00 in
Snow Depth Not available.
UV 0 out of 12
Pollen .10 out of 12
Air Quality Not available.
Flu Activity Not available.
METAR KMLT 311953Z AUTO 01005KT 10SM OVC050 08/00 A3005 RMK AO2 SLP183 T00780000

More Conditions Fewer Conditions

Druk 30.07 in
Sigbaarheid 10.0 myle
Wolke Toe getrek 5000 ft
Wind afkoel 46 °F
Dou-punt 31 °F
Humiditeit 55%
Rainfall 0.00 in
Snow Depth Not available.
UV 0 out of 12
Pollen .10 out of 12
Air Quality Not available.
Flu Activity Not available.
METAR KMLT 311953Z AUTO 01005KT 10SM OVC050 08/00 A3005 RMK AO2 SLP183 T00780000

More Conditions Fewer Conditions

10-Day Weather Forecast

Almanac

Astronomy

Oct. 31, 2014 Rise Set
Ware Tyd
Civil Twilight
Nautical Twilight
Astronomical Twilight
Maan
Length Of Visible Light
Length of Day
Tomorrow will be .
, % of the Moon is Illuminated

Today's Extremes

State Highs State Lows

Community

WunderPhotos

Upload Photos

1,766,725 photos uploaded!

WunderBlogs® & News

Nearby

Air Quality

  Air Quality AQ Index Pollutant
Not available.

Snow Depth

Station Depth Elevation

Earthquake Activity

Stad Distance Mag. Time & Date
Minimum magnitude displayed is 2.5.

Coastal Water Temperatures

Plek Temperatuur

Nearby Weather Stations